AFR7367 LFLL-LFPG
Flight info
| Callsign | AFR7367 |
|---|---|
| Flight time | N/A |
| Altitude | 30000 |
| Route | MOKIP DCT ARFOZ DCT TINIL |
| Aircraft | A320/M-SDE3FGHIRWY/LB1 |
Departure
| Time | N/A |
|---|---|
| Airport | Lyon Saint-Exupéry Airport (LFLL) |
Arrival
| Time | 2026-04-30 17:50 |
|---|---|
| Airport | Charles de Gaulle International Airport (LFPG) |
| Time | Latitude | Longitude | Altitude | Speed | Heading |
|---|---|---|---|---|---|
| 2026-04-30 14:55 | 45.71753 | 5.07935 | 831 ft | 0 kts | 291° |
| 2026-04-30 15:08 | 45.71742 | 5.07974 | 831 ft | 2 kts | 292° |
| 2026-04-30 15:08 | 45.71726 | 5.08034 | 831 ft | 2 kts | 292° |
| 2026-04-30 15:09 | 45.71710 | 5.08070 | 831 ft | 2 kts | 336° |
| 2026-04-30 15:09 | 45.71681 | 5.08067 | 831 ft | 2 kts | 13° |
| 2026-04-30 15:10 | 45.71666 | 5.08062 | 831 ft | 0 kts | 14° |
| 2026-04-30 15:13 | 45.71680 | 5.08067 | 831 ft | 4 kts | 14° |
| 2026-04-30 15:14 | 45.71938 | 5.08213 | 831 ft | 12 kts | 18° |
| 2026-04-30 15:14 | 45.72084 | 5.08442 | 831 ft | 14 kts | 354° |
| 2026-04-30 15:16 | 45.72642 | 5.08375 | 831 ft | 17 kts | 355° |
| 2026-04-30 15:17 | 45.73145 | 5.08313 | 831 ft | 18 kts | 355° |
| 2026-04-30 15:18 | 45.73816 | 5.08230 | 831 ft | 19 kts | 355° |
| 2026-04-30 15:19 | 45.74225 | 5.08275 | 831 ft | 20 kts | 13° |
| 2026-04-30 17:39 | 48.90580 | 2.27234 | 9436 ft | 300 kts | 263° |
| 2026-04-30 17:41 | 48.93336 | 2.07116 | 5716 ft | 246 kts | 15° |
| 2026-04-30 17:42 | 48.95793 | 2.09982 | 5176 ft | 219 kts | 65° |
| 2026-04-30 17:42 | 48.97020 | 2.15803 | 5145 ft | 165 kts | 83° |
| 2026-04-30 17:43 | 48.97322 | 2.18994 | 4965 ft | 148 kts | 85° |
| 2026-04-30 17:44 | 48.97613 | 2.23300 | 4401 ft | 130 kts | 87° |
| 2026-04-30 17:44 | 48.97823 | 2.27394 | 3906 ft | 128 kts | 89° |
| 2026-04-30 17:46 | 48.98140 | 2.34117 | 3099 ft | 127 kts | 89° |
| 2026-04-30 17:47 | 48.98407 | 2.39449 | 2452 ft | 125 kts | 89° |
| 2026-04-30 17:48 | 48.98677 | 2.44713 | 1803 ft | 124 kts | 88° |
| 2026-04-30 17:48 | 48.98878 | 2.48651 | 1321 ft | 123 kts | 88° |
| 2026-04-30 17:49 | 48.99151 | 2.53816 | 691 ft | 122 kts | 87° |
| 2026-04-30 17:50 | 48.99358 | 2.58052 | 322 ft | 38 kts | 84° |
| 2026-04-30 17:51 | 48.99582 | 2.59071 | 322 ft | 29 kts | 65° |
| 2026-04-30 17:52 | 48.99688 | 2.59685 | 321 ft | 17 kts | 6° |
| 2026-04-30 17:53 | 49.00162 | 2.59636 | 327 ft | 12 kts | 355° |
| 2026-04-30 17:54 | 49.00632 | 2.59580 | 330 ft | 18 kts | 356° |
| 2026-04-30 17:55 | 49.00996 | 2.59344 | 333 ft | 17 kts | 265° |
| 2026-04-30 17:56 | 49.00934 | 2.58609 | 335 ft | 18 kts | 265° |
| 2026-04-30 17:57 | 49.00903 | 2.58019 | 336 ft | 18 kts | 265° |
| 2026-04-30 17:58 | 49.00791 | 2.57701 | 335 ft | 8 kts | 209° |
| 2026-04-30 17:59 | 49.00660 | 2.57578 | 333 ft | 0 kts | 246° |